createdAt,value
2023-12-31T00:01:21.559Z,100429.13
2023-12-31T00:04:51.125Z,100431.75
2023-12-31T00:09:17.215Z,100434.69
2023-12-31T00:11:57.892Z,100432.23
2023-12-31T00:19:47.005Z,100435.96
2023-12-31T00:22:38.320Z,100432.14
2023-12-31T00:25:16.988Z,100429.36
2023-12-31T00:28:22.995Z,100427.06
2023-12-31T00:31:20.577Z,100428.68
2023-12-31T00:33:57.046Z,100426.83
2023-12-31T00:36:37.905Z,100425.24
2023-12-31T00:39:19.131Z,100422.79
2023-12-31T00:42:24.706Z,100420.47
2023-12-31T00:44:52.877Z,100412.32
2023-12-31T00:47:54.073Z,100407.52
2023-12-31T00:51:13.137Z,100409.64
2023-12-31T00:54:20.484Z,100414.41
2023-12-31T00:58:29.479Z,100414.27
2023-12-31T01:01:48.010Z,100416.32
2023-12-31T01:05:15.306Z,100413.02
2023-12-31T01:08:35.714Z,100412.93
2023-12-31T01:14:21.654Z,100412.03
2023-12-31T01:24:50.380Z,100404.36
2023-12-31T01:28:53.523Z,100402.50
2023-12-31T01:40:16.638Z,100402.86
2023-12-31T01:42:56.717Z,100398.87
2023-12-31T01:46:46.580Z,100400.05
2023-12-31T01:49:48.904Z,100394.87
2023-12-31T01:52:45.077Z,100386.84
2023-12-31T01:55:24.345Z,100385.46
2023-12-31T01:58:00.451Z,100387.91
2023-12-31T02:02:49.274Z,100388.02
2023-12-31T02:21:02.564Z,100384.45
2023-12-31T02:27:10.304Z,100385.61
2023-12-31T02:31:55.405Z,100386.02
2023-12-31T02:34:29.501Z,100385.70
2023-12-31T02:41:02.608Z,100376.42
2023-12-31T02:43:48.411Z,100378.38
2023-12-31T02:46:37.151Z,100381.29
2023-12-31T02:49:33.580Z,100384.08
2023-12-31T02:52:36.723Z,100378.41
2023-12-31T02:55:09.520Z,100377.00
2023-12-31T02:58:41.913Z,100375.91
2023-12-31T03:01:15.449Z,100372.37
2023-12-31T03:03:43.105Z,100370.27
2023-12-31T03:06:15.421Z,100369.76
2023-12-31T03:08:43.165Z,100374.63
2023-12-31T03:15:12.599Z,100372.14
2023-12-31T03:18:53.297Z,100369.05
2023-12-31T03:20:54.626Z,100365.73
2023-12-31T03:23:51.143Z,100364.95
2023-12-31T03:26:32.200Z,100362.09
2023-12-31T03:29:33.893Z,100361.70
2023-12-31T03:32:42.275Z,100360.25
2023-12-31T03:35:23.971Z,100356.21
2023-12-31T03:38:06.924Z,100351.36
2023-12-31T03:41:14.259Z,100351.35
2023-12-31T05:07:55.531Z,100390.95
2023-12-31T05:12:13.592Z,100391.64
2023-12-31T05:32:59.912Z,100393.20
2023-12-31T05:55:01.741Z,100383.84
2023-12-31T07:28:20.384Z,100396.88
2023-12-31T07:44:25.314Z,100390.09
2023-12-31T07:47:21.384Z,100392.02
2023-12-31T07:52:01.017Z,100392.59
2023-12-31T08:52:48.509Z,100383.29
2023-12-31T09:14:23.782Z,100363.24
2023-12-31T09:36:51.743Z,100334.52
2023-12-31T09:43:34.619Z,100330.04
2023-12-31T10:01:31.435Z,100311.11
2023-12-31T10:09:02.473Z,100302.48
2023-12-31T10:13:02.386Z,100295.83
2023-12-31T10:29:21.979Z,100271.67
2023-12-31T10:41:58.853Z,100250.09
2023-12-31T10:45:02.104Z,100242.98
2023-12-31T10:48:13.417Z,100236.70
2023-12-31T10:51:28.160Z,100229.73
2023-12-31T10:54:19.853Z,100226.13
2023-12-31T10:57:06.509Z,100226.85
2023-12-31T11:04:42.307Z,100209.58
2023-12-31T11:08:00.229Z,100198.61
2023-12-31T11:11:01.576Z,100194.68
2023-12-31T11:14:24.248Z,100188.08
2023-12-31T11:32:03.100Z,100154.63
2023-12-31T11:39:44.890Z,100150.08
2023-12-31T11:42:41.010Z,100139.82
2023-12-31T11:45:54.060Z,100135.18
2023-12-31T11:48:47.033Z,100132.21
2023-12-31T11:51:28.277Z,100126.21
2023-12-31T11:54:03.606Z,100121.17
2023-12-31T11:57:46.455Z,100117.63
2023-12-31T12:00:36.994Z,100109.67
2023-12-31T12:03:16.983Z,100103.33
2023-12-31T12:05:56.596Z,100101.95
2023-12-31T12:08:49.288Z,100098.61
2023-12-31T12:11:51.914Z,100099.49
2023-12-31T12:14:18.992Z,100095.52
2023-12-31T12:16:48.962Z,100094.17
2023-12-31T12:19:40.051Z,100091.71
2023-12-31T12:22:15.996Z,100084.59
2023-12-31T12:25:32.933Z,100083.00
2023-12-31T12:29:00.905Z,100077.46
2023-12-31T12:31:58.066Z,100079.06
2023-12-31T12:34:38.834Z,100075.05
2023-12-31T12:37:15.315Z,100070.39
2023-12-31T12:39:44.609Z,100070.63
2023-12-31T12:42:29.138Z,100070.09
2023-12-31T12:44:58.861Z,100070.80
2023-12-31T12:47:27.240Z,100069.45
2023-12-31T12:50:01.834Z,100071.91
2023-12-31T12:52:41.054Z,100066.66
2023-12-31T12:55:12.261Z,100064.48
2023-12-31T12:58:10.026Z,100060.02
2023-12-31T13:00:53.038Z,100057.94
2023-12-31T13:03:23.210Z,100057.85
2023-12-31T13:05:54.826Z,100057.84
2023-12-31T13:08:22.929Z,100056.88
2023-12-31T13:10:53.951Z,100054.64
2023-12-31T13:13:56.151Z,100050.23
2023-12-31T13:16:58.094Z,100049.49
2023-12-31T13:19:41.841Z,100043.42
2023-12-31T13:22:23.687Z,100036.43
2023-12-31T13:25:11.602Z,100031.53
2023-12-31T13:27:41.285Z,100024.42
2023-12-31T13:30:27.964Z,100023.40
2023-12-31T13:33:00.180Z,100021.36
2023-12-31T13:35:30.404Z,100020.86
2023-12-31T13:38:10.707Z,100016.30
2023-12-31T13:49:37.098Z,99999.77
2023-12-31T14:06:09.444Z,99988.44
2023-12-31T14:10:14.711Z,99991.59
2023-12-31T14:13:02.523Z,99990.48
2023-12-31T14:17:08.945Z,99984.95
2023-12-31T14:29:33.393Z,99978.08
2023-12-31T14:32:19.702Z,99975.16
2023-12-31T14:35:33.285Z,99966.27
2023-12-31T14:38:57.468Z,99965.02
2023-12-31T14:41:55.705Z,99965.05
2023-12-31T14:44:32.884Z,99964.81
2023-12-31T14:47:09.795Z,99956.11
2023-12-31T14:49:45.622Z,99949.16
2023-12-31T14:52:19.254Z,99945.04
2023-12-31T14:55:08.870Z,99944.10
2023-12-31T14:58:14.144Z,99937.53
2023-12-31T15:01:52.292Z,99929.84
2023-12-31T16:00:34.609Z,99899.24
2023-12-31T16:03:05.270Z,99901.67
2023-12-31T17:46:38.730Z,99895.72
2023-12-31T17:49:37.162Z,99894.83
2023-12-31T18:09:27.666Z,99876.54
2023-12-31T18:25:55.544Z,99869.96
2023-12-31T19:23:53.270Z,99824.36
2023-12-31T19:33:37.250Z,99823.20
2023-12-31T19:54:07.072Z,99823.88
2023-12-31T21:23:04.573Z,99803.19
2023-12-31T21:57:42.310Z,99765.02
2023-12-31T22:00:27.153Z,99755.02
2023-12-31T22:03:04.060Z,99749.52
2023-12-31T23:19:48.163Z,99715.20
2023-12-31T23:45:35.068Z,99698.70
